createdAt,value
2023-03-01T00:01:20.287Z,-3.02
2023-03-01T00:03:48.475Z,-3.03
2023-03-01T00:06:16.408Z,-3.03
2023-03-01T00:08:44.032Z,-3.02
2023-03-01T00:11:14.050Z,-3.02
2023-03-01T00:13:43.122Z,-3.03
2023-03-01T00:16:16.304Z,-3.06
2023-03-01T00:18:44.395Z,-3.07
2023-03-01T00:21:12.611Z,-3.09
2023-03-01T00:23:40.708Z,-3.09
2023-03-01T00:26:10.670Z,-3.09
2023-03-01T00:28:38.948Z,-3.11
2023-03-01T00:31:15.407Z,-3.14
2023-03-01T00:33:43.462Z,-3.14
2023-03-01T00:36:13.062Z,-3.13
2023-03-01T00:38:45.617Z,-3.14
2023-03-01T00:41:15.829Z,-3.14
2023-03-01T00:43:44.021Z,-3.16
2023-03-01T00:46:14.179Z,-3.14
2023-03-01T00:48:42.515Z,-3.13
2023-03-01T00:51:11.843Z,-3.14
2023-03-01T00:53:40.170Z,-3.15
2023-03-01T00:56:10.200Z,-3.15
2023-03-01T00:58:38.147Z,-3.16
2023-03-01T01:01:20.784Z,-3.15
2023-03-01T01:03:52.394Z,-3.16
2023-03-01T01:06:34.390Z,-3.15
2023-03-01T01:09:03.127Z,-3.10
2023-03-01T01:11:31.172Z,-3.04
2023-03-01T01:14:00.254Z,-3.00
2023-03-01T01:16:29.349Z,-2.97
2023-03-01T01:18:57.560Z,-2.90
2023-03-01T01:21:26.557Z,-2.83
2023-03-01T01:23:55.004Z,-2.78
2023-03-01T01:26:28.461Z,-2.73
2023-03-01T01:28:56.780Z,-2.72
2023-03-01T01:31:26.670Z,-2.72
2023-03-01T01:33:56.715Z,-2.70
2023-03-01T01:36:25.542Z,-2.71
2023-03-01T01:38:53.401Z,-2.73
2023-03-01T01:41:22.764Z,-2.76
2023-03-01T01:44:11.710Z,-2.81
2023-03-01T01:46:52.702Z,-2.86
2023-03-01T01:49:26.673Z,-2.87
2023-03-01T01:52:02.757Z,-2.88
2023-03-01T01:54:40.519Z,-2.90
2023-03-01T01:57:12.374Z,-2.94
2023-03-01T01:59:42.198Z,-2.97
2023-03-01T02:02:10.018Z,-2.95
2023-03-01T02:04:37.616Z,-2.94
2023-03-01T02:07:18.203Z,-2.93
2023-03-01T02:09:50.857Z,-2.88
2023-03-01T02:12:22.075Z,-2.82
2023-03-01T02:14:49.851Z,-2.75
2023-03-01T02:17:18.850Z,-2.69
2023-03-01T02:20:16.128Z,-2.64
2023-03-01T02:22:45.432Z,-2.56
2023-03-01T02:25:30.186Z,-2.46
2023-03-01T02:28:19.211Z,-2.35
2023-03-01T02:31:08.978Z,-2.27
2023-03-01T02:33:39.536Z,-2.21
2023-03-01T02:36:31.711Z,-2.17
2023-03-01T02:39:00.668Z,-2.13
2023-03-01T02:41:29.926Z,-2.11
2023-03-01T02:43:57.680Z,-2.10
2023-03-01T02:46:26.793Z,-2.11
2023-03-01T02:48:59.108Z,-2.13
2023-03-01T02:51:43.153Z,-2.13
2023-03-01T02:54:29.954Z,-2.13
2023-03-01T02:56:59.263Z,-2.17
2023-03-01T02:59:30.924Z,-2.19
2023-03-01T03:01:58.540Z,-2.19
2023-03-01T03:04:26.252Z,-2.20
2023-03-01T03:06:53.852Z,-2.22
2023-03-01T03:09:21.506Z,-2.21
2023-03-01T03:11:49.391Z,-2.20
2023-03-01T03:14:18.076Z,-2.17
2023-03-01T03:16:49.865Z,-2.14
2023-03-01T03:19:19.396Z,-2.09
2023-03-01T03:21:47.645Z,-2.07
2023-03-01T03:24:15.276Z,-2.05
2023-03-01T03:26:42.920Z,-2.03
2023-03-01T03:29:10.522Z,-2.04
2023-03-01T03:31:38.153Z,-2.09
2023-03-01T03:34:05.900Z,-2.12
2023-03-01T03:36:33.491Z,-2.13
2023-03-01T03:39:01.110Z,-2.13
2023-03-01T03:41:28.770Z,-2.15
2023-03-01T03:43:56.432Z,-2.16
2023-03-01T03:46:24.027Z,-2.14
2023-03-01T03:48:51.688Z,-2.12
2023-03-01T03:51:19.797Z,-2.12
2023-03-01T03:53:47.473Z,-2.17
2023-03-01T03:56:15.612Z,-2.19
2023-03-01T03:58:43.291Z,-2.18
2023-03-01T04:01:10.909Z,-2.16
2023-03-01T04:03:38.581Z,-2.17
2023-03-01T04:06:07.051Z,-2.18
2023-03-01T04:08:34.717Z,-2.19
2023-03-01T04:11:30.217Z,-2.19
2023-03-01T04:13:59.408Z,-2.19
2023-03-01T04:16:27.258Z,-2.18
2023-03-01T04:18:54.995Z,-2.17
2023-03-01T04:21:23.054Z,-2.16
2023-03-01T04:23:53.543Z,-2.13
2023-03-01T04:26:21.523Z,-2.10
2023-03-01T04:28:51.031Z,-2.08
2023-03-01T04:31:22.067Z,-2.06
2023-03-01T04:33:52.624Z,-2.04
2023-03-01T04:36:23.752Z,-2.03
2023-03-01T04:38:51.522Z,-2.04
2023-03-01T04:41:20.907Z,-2.03
2023-03-01T04:43:49.644Z,-2.02
2023-03-01T04:46:20.621Z,-2.04
2023-03-01T04:48:48.619Z,-2.05
2023-03-01T04:51:17.071Z,-2.06
2023-03-01T04:53:45.500Z,-2.07
2023-03-01T04:56:14.889Z,-2.09
2023-03-01T04:58:43.033Z,-2.09
2023-03-01T05:01:16.652Z,-2.09
2023-03-01T05:03:45.910Z,-2.11
2023-03-01T05:06:14.468Z,-2.13
2023-03-01T05:08:43.132Z,-2.18
2023-03-01T05:11:11.661Z,-2.22
2023-03-01T05:13:40.201Z,-2.25
2023-03-01T05:16:12.286Z,-2.28
2023-03-01T05:18:41.330Z,-2.28
2023-03-01T05:21:16.867Z,-2.26
2023-03-01T05:23:45.418Z,-2.24
2023-03-01T05:26:27.380Z,-2.24
2023-03-01T05:29:00.238Z,-2.28
2023-03-01T05:31:29.112Z,-2.32
2023-03-01T05:33:56.826Z,-2.36
2023-03-01T05:36:24.523Z,-2.37
2023-03-01T05:38:52.103Z,-2.36
2023-03-01T05:41:19.738Z,-2.32
2023-03-01T05:43:47.329Z,-2.27
2023-03-01T05:46:16.269Z,-2.24
2023-03-01T05:48:44.739Z,-2.22
2023-03-01T05:51:13.154Z,-2.20
2023-03-01T05:53:40.886Z,-2.18
2023-03-01T05:56:08.778Z,-2.13
2023-03-01T05:58:36.390Z,-2.08
2023-03-01T06:01:04.111Z,-2.00
2023-03-01T06:03:31.781Z,-1.93
2023-03-01T06:05:59.617Z,-1.85
2023-03-01T06:08:28.327Z,-1.78
2023-03-01T06:10:56.774Z,-1.72
2023-03-01T06:13:25.361Z,-1.69
2023-03-01T06:15:53.169Z,-1.66
2023-03-01T06:18:20.994Z,-1.63
2023-03-01T06:20:56.786Z,-1.57
2023-03-01T06:23:25.212Z,-1.51
2023-03-01T06:25:53.223Z,-1.45
2023-03-01T06:28:21.355Z,-1.39
2023-03-01T06:30:50.505Z,-1.31
2023-03-01T06:33:21.031Z,-1.17
2023-03-01T06:35:48.675Z,-1.06
2023-03-01T06:38:18.418Z,-0.97
2023-03-01T06:40:46.537Z,-0.89
2023-03-01T06:43:14.157Z,-0.79
2023-03-01T06:45:42.639Z,-0.65
2023-03-01T06:48:10.279Z,-0.44
2023-03-01T06:50:39.225Z,-0.30
2023-03-01T06:53:07.120Z,-0.23
2023-03-01T06:55:34.930Z,-0.21
2023-03-01T06:58:04.039Z,-0.19
2023-03-01T07:00:32.178Z,-0.19
2023-03-01T07:03:01.488Z,-0.18
2023-03-01T07:05:30.603Z,-0.18
2023-03-01T07:07:58.399Z,-0.15
2023-03-01T07:10:26.101Z,-0.10
2023-03-01T07:13:00.055Z,-0.05
2023-03-01T07:15:29.613Z,0.03
2023-03-01T07:17:57.460Z,0.09
2023-03-01T07:20:26.297Z,0.16
2023-03-01T07:22:55.532Z,0.23
2023-03-01T07:25:23.364Z,0.27
2023-03-01T07:27:53.021Z,0.31
2023-03-01T07:30:21.861Z,0.35
2023-03-01T07:32:49.740Z,0.40
2023-03-01T07:35:17.672Z,0.48
2023-03-01T07:37:45.307Z,0.52
2023-03-01T07:40:13.471Z,0.53
2023-03-01T07:42:41.216Z,0.55
2023-03-01T07:45:09.649Z,0.59
2023-03-01T07:47:37.558Z,0.66
2023-03-01T07:50:06.427Z,0.71
2023-03-01T07:52:34.081Z,0.79
2023-03-01T07:55:01.711Z,0.83
2023-03-01T07:57:29.345Z,0.89
2023-03-01T07:59:57.181Z,0.97
2023-03-01T08:02:24.804Z,1.07
2023-03-01T08:04:52.443Z,1.13
2023-03-01T08:07:20.063Z,1.18
2023-03-01T08:09:47.651Z,1.28
2023-03-01T08:12:17.238Z,1.37
2023-03-01T08:14:44.935Z,1.43
2023-03-01T08:17:15.397Z,1.49
2023-03-01T08:19:44.099Z,1.57
2023-03-01T08:22:11.821Z,1.65
2023-03-01T08:24:39.431Z,1.73
2023-03-01T08:27:07.124Z,1.85
2023-03-01T08:29:34.794Z,2.02
2023-03-01T08:32:02.489Z,2.15
2023-03-01T08:34:32.172Z,2.26
2023-03-01T08:36:59.828Z,2.39
2023-03-01T08:39:28.038Z,2.54
2023-03-01T08:41:55.693Z,2.73
2023-03-01T08:44:23.347Z,2.83
2023-03-01T08:46:52.461Z,2.94
2023-03-01T08:49:20.974Z,3.13
2023-03-01T08:51:49.015Z,3.33
2023-03-01T08:54:19.979Z,3.54
2023-03-01T08:56:48.202Z,3.74
2023-03-01T08:59:18.184Z,3.82
2023-03-01T09:01:45.874Z,3.85
2023-03-01T09:04:15.278Z,3.89
2023-03-01T09:06:43.180Z,4.00
2023-03-01T09:09:16.962Z,4.09
2023-03-01T09:11:47.107Z,4.13
2023-03-01T09:14:15.473Z,4.16
2023-03-01T09:16:43.510Z,4.26
2023-03-01T09:19:12.313Z,4.34
2023-03-01T09:21:41.225Z,4.36
2023-03-01T09:24:14.484Z,4.38
2023-03-01T09:26:42.753Z,4.43
2023-03-01T09:29:10.679Z,4.50
2023-03-01T09:31:39.111Z,4.54
2023-03-01T09:34:07.366Z,4.58
2023-03-01T09:36:35.073Z,4.64
2023-03-01T09:39:03.634Z,4.67
2023-03-01T09:41:50.144Z,4.68
2023-03-01T09:44:41.473Z,4.66
2023-03-01T09:47:30.275Z,4.57
2023-03-01T09:50:10.595Z,4.52
2023-03-01T09:52:47.708Z,4.54
2023-03-01T09:55:19.011Z,4.57
2023-03-01T09:58:01.127Z,4.58
2023-03-01T10:00:42.138Z,4.61
2023-03-01T10:03:27.689Z,4.65
2023-03-01T10:06:01.969Z,4.69
2023-03-01T10:08:37.155Z,4.74
2023-03-01T10:11:07.498Z,4.82
2023-03-01T10:13:54.977Z,4.87
2023-03-01T10:16:27.748Z,4.87
2023-03-01T10:19:01.790Z,4.87
2023-03-01T10:21:32.468Z,4.90
2023-03-01T10:24:13.555Z,4.93
2023-03-01T10:27:03.152Z,4.96
2023-03-01T10:30:22.676Z,5.02
2023-03-01T10:32:52.578Z,5.07
2023-03-01T10:35:26.067Z,5.12
2023-03-01T10:38:05.045Z,5.17
2023-03-01T10:40:34.098Z,5.22
2023-03-01T10:43:04.318Z,5.27
2023-03-01T10:45:38.580Z,5.36
2023-03-01T10:48:16.931Z,5.41
2023-03-01T10:50:50.090Z,5.48
2023-03-01T10:53:21.701Z,5.54
2023-03-01T10:55:58.111Z,5.57
2023-03-01T10:58:25.719Z,5.60
2023-03-01T11:01:20.702Z,5.65
2023-03-01T11:04:13.754Z,5.70
2023-03-01T11:06:42.588Z,5.74
2023-03-01T11:09:16.772Z,5.79
2023-03-01T11:11:45.249Z,5.84
2023-03-01T11:14:28.914Z,5.84
2023-03-01T11:17:06.207Z,5.83
2023-03-01T11:19:34.372Z,5.86
2023-03-01T11:22:06.977Z,5.89
2023-03-01T11:25:09.015Z,5.92
2023-03-01T11:27:40.245Z,5.92
2023-03-01T11:31:01.839Z,5.94
2023-03-01T11:34:11.379Z,5.94
2023-03-01T11:36:47.516Z,5.98
2023-03-01T11:39:37.573Z,6.03
2023-03-01T11:42:18.815Z,6.09
2023-03-01T11:44:53.087Z,6.15
2023-03-01T11:47:49.828Z,6.19
2023-03-01T11:50:30.054Z,6.24
2023-03-01T11:53:20.129Z,6.30
2023-03-01T11:56:19.942Z,6.36
2023-03-01T11:58:57.404Z,6.40
2023-03-01T12:01:41.755Z,6.47
2023-03-01T12:04:32.003Z,6.51
2023-03-01T12:07:20.594Z,6.55
2023-03-01T12:10:10.003Z,6.56
2023-03-01T12:12:46.268Z,6.60
2023-03-01T12:15:27.448Z,6.65
2023-03-01T12:18:14.398Z,6.68
2023-03-01T12:21:00.672Z,6.70
2023-03-01T12:23:56.934Z,6.69
2023-03-01T12:26:28.234Z,6.70
2023-03-01T12:29:21.377Z,6.73
2023-03-01T12:32:06.500Z,6.77
2023-03-01T12:34:53.227Z,6.84
2023-03-01T12:37:31.924Z,6.85
2023-03-01T12:40:18.980Z,6.87
2023-03-01T12:42:59.092Z,6.89
2023-03-01T12:45:42.540Z,6.93
2023-03-01T12:48:29.465Z,6.97
2023-03-01T12:51:01.260Z,7.00
2023-03-01T12:53:47.843Z,7.00
2023-03-01T12:56:21.123Z,7.01
2023-03-01T12:59:17.270Z,7.06
2023-03-01T13:02:12.975Z,7.08
2023-03-01T13:05:12.454Z,7.10
2023-03-01T13:07:50.318Z,7.12
2023-03-01T13:10:57.493Z,7.16
2023-03-01T13:13:27.088Z,7.17
2023-03-01T13:15:55.751Z,7.21
2023-03-01T13:18:24.265Z,7.26
2023-03-01T13:20:58.236Z,7.29
2023-03-01T13:23:35.317Z,7.29
2023-03-01T13:26:16.743Z,7.33
2023-03-01T13:28:57.041Z,7.35
2023-03-01T13:31:27.513Z,7.37
2023-03-01T13:33:56.820Z,7.39
2023-03-01T13:36:31.521Z,7.40
2023-03-01T13:39:01.579Z,7.38
2023-03-01T13:41:44.930Z,7.38
2023-03-01T13:44:37.168Z,7.36
2023-03-01T13:47:08.095Z,7.32
2023-03-01T13:49:53.266Z,7.30
2023-03-01T13:52:45.781Z,7.27
2023-03-01T13:55:26.298Z,7.23
2023-03-01T13:58:00.049Z,7.22
2023-03-01T14:00:29.584Z,7.21
2023-03-01T14:03:18.030Z,7.19
2023-03-01T14:06:12.813Z,7.14
2023-03-01T14:08:42.472Z,7.07
2023-03-01T14:11:34.730Z,7.06
2023-03-01T14:14:28.184Z,7.07
2023-03-01T14:17:01.669Z,7.05
2023-03-01T14:19:33.623Z,7.04
2023-03-01T14:22:24.270Z,7.03
2023-03-01T14:25:06.328Z,7.01
2023-03-01T14:27:45.713Z,6.99
2023-03-01T14:30:29.112Z,6.97
2023-03-01T14:33:02.211Z,6.96
2023-03-01T14:35:32.356Z,6.96
2023-03-01T14:38:00.222Z,6.95
2023-03-01T14:40:27.902Z,6.94
2023-03-01T14:42:58.136Z,6.93
2023-03-01T14:45:28.319Z,6.90
2023-03-01T14:47:57.132Z,6.88
2023-03-01T14:50:32.368Z,6.87
2023-03-01T14:53:03.076Z,6.86
2023-03-01T14:55:39.750Z,6.86
2023-03-01T14:58:13.708Z,6.84
2023-03-01T15:00:52.185Z,6.81
2023-03-01T15:03:39.764Z,6.79
2023-03-01T15:06:08.536Z,6.76
2023-03-01T15:08:37.901Z,6.73
2023-03-01T15:11:23.875Z,6.72
2023-03-01T15:13:55.486Z,6.69
2023-03-01T15:16:34.001Z,6.66
2023-03-01T15:19:04.735Z,6.65
2023-03-01T15:21:34.847Z,6.63
2023-03-01T15:24:21.025Z,6.61
2023-03-01T15:27:02.860Z,6.57
2023-03-01T15:29:34.240Z,6.55
2023-03-01T15:32:29.832Z,6.53
2023-03-01T15:34:59.390Z,6.48
2023-03-01T15:37:48.809Z,6.43
2023-03-01T15:40:32.497Z,6.37
2023-03-01T15:43:05.577Z,6.30
2023-03-01T15:45:39.527Z,6.25
2023-03-01T15:48:19.142Z,6.21
2023-03-01T15:50:55.366Z,6.12
2023-03-01T15:53:23.180Z,6.01
2023-03-01T15:55:51.371Z,5.94
2023-03-01T15:58:22.155Z,5.86
2023-03-01T16:01:00.811Z,5.78
2023-03-01T16:03:30.090Z,5.67
2023-03-01T16:05:57.961Z,5.55
2023-03-01T16:08:25.775Z,5.42
2023-03-01T16:10:55.474Z,5.30
2023-03-01T16:13:23.391Z,5.19
2023-03-01T16:15:51.139Z,5.08
2023-03-01T16:18:18.821Z,5.01
2023-03-01T16:20:46.438Z,4.94
2023-03-01T16:23:15.349Z,4.86
2023-03-01T16:25:43.103Z,4.78
2023-03-01T16:28:11.119Z,4.70
2023-03-01T16:30:40.726Z,4.57
2023-03-01T16:33:24.180Z,4.39
2023-03-01T16:35:56.312Z,4.21
2023-03-01T16:38:24.061Z,4.08
2023-03-01T16:40:53.006Z,3.94
2023-03-01T16:43:21.064Z,3.80
2023-03-01T16:45:48.781Z,3.64
2023-03-01T16:48:16.499Z,3.47
2023-03-01T16:50:44.157Z,3.34
2023-03-01T16:53:12.218Z,3.23
2023-03-01T16:55:46.111Z,3.11
2023-03-01T16:58:13.891Z,2.97
2023-03-01T17:00:41.505Z,2.85
2023-03-01T17:03:09.188Z,2.75
2023-03-01T17:05:37.008Z,2.63
2023-03-01T17:08:04.614Z,2.52
2023-03-01T17:10:33.907Z,2.41
2023-03-01T17:13:01.612Z,2.33
2023-03-01T17:15:29.497Z,2.25
2023-03-01T17:17:57.186Z,2.16
2023-03-01T17:20:25.027Z,2.10
2023-03-01T17:22:53.203Z,2.04
2023-03-01T17:25:20.854Z,1.96
2023-03-01T17:27:48.494Z,1.89
2023-03-01T17:30:16.473Z,1.82
2023-03-01T17:32:44.494Z,1.71
2023-03-01T17:35:14.191Z,1.67
2023-03-01T17:37:46.541Z,1.67
2023-03-01T17:40:14.433Z,1.65
2023-03-01T17:42:42.195Z,1.65
2023-03-01T17:45:10.430Z,1.72
2023-03-01T17:47:38.482Z,1.84
2023-03-01T17:50:08.196Z,1.96
2023-03-01T17:52:35.944Z,2.08
2023-03-01T17:55:05.369Z,2.19
2023-03-01T17:57:33.004Z,2.29
2023-03-01T18:00:00.806Z,2.36
2023-03-01T18:02:28.931Z,2.45
2023-03-01T18:04:58.987Z,2.51
2023-03-01T18:07:27.863Z,2.57
2023-03-01T18:09:56.113Z,2.61
2023-03-01T18:12:23.763Z,2.66
2023-03-01T18:14:53.668Z,2.70
2023-03-01T18:17:25.600Z,2.73
2023-03-01T18:19:53.437Z,2.76
2023-03-01T18:22:21.093Z,2.77
2023-03-01T18:24:48.722Z,2.77
2023-03-01T18:27:16.492Z,2.75
2023-03-01T18:29:44.390Z,2.74
2023-03-01T18:32:12.130Z,2.72
2023-03-01T18:34:39.927Z,2.69
2023-03-01T18:37:09.962Z,2.64
2023-03-01T18:39:38.367Z,2.63
2023-03-01T18:42:06.091Z,2.62
2023-03-01T18:44:34.406Z,2.61
2023-03-01T18:47:02.316Z,2.62
2023-03-01T18:49:30.131Z,2.63
2023-03-01T18:51:57.819Z,2.63
2023-03-01T18:54:25.829Z,2.62
2023-03-01T18:56:53.456Z,2.59
2023-03-01T18:59:21.075Z,2.55
2023-03-01T19:01:48.939Z,2.51
2023-03-01T19:04:16.620Z,2.48
2023-03-01T19:06:44.221Z,2.47
2023-03-01T19:09:12.008Z,2.45
2023-03-01T19:11:40.694Z,2.46
2023-03-01T19:14:08.772Z,2.46
2023-03-01T19:16:36.560Z,2.49
2023-03-01T19:19:06.332Z,2.51
2023-03-01T19:21:34.596Z,2.53
2023-03-01T19:24:03.143Z,2.53
2023-03-01T19:26:31.556Z,2.51
2023-03-01T19:28:59.959Z,2.49
2023-03-01T19:31:29.627Z,2.48
2023-03-01T19:34:10.037Z,2.46
2023-03-01T19:36:43.253Z,2.45
2023-03-01T19:39:13.534Z,2.42
2023-03-01T19:41:42.545Z,2.41
2023-03-01T19:44:11.164Z,2.42
2023-03-01T19:46:39.206Z,2.43
2023-03-01T19:49:08.175Z,2.44
2023-03-01T19:51:38.928Z,2.46
2023-03-01T19:54:07.386Z,2.47
2023-03-01T19:56:35.687Z,2.48
2023-03-01T19:59:04.564Z,2.48
2023-03-01T20:01:34.421Z,2.48
2023-03-01T20:04:03.907Z,2.48
2023-03-01T20:06:32.123Z,2.47
2023-03-01T20:09:12.095Z,2.45
2023-03-01T20:11:46.881Z,2.42
2023-03-01T20:14:14.639Z,2.39
2023-03-01T20:16:42.344Z,2.37
2023-03-01T20:19:10.068Z,2.36
2023-03-01T20:21:37.823Z,2.34
2023-03-01T20:24:05.768Z,2.32
2023-03-01T20:26:33.952Z,2.31
2023-03-01T20:29:01.911Z,2.29
2023-03-01T20:31:29.903Z,2.27
2023-03-01T20:33:59.364Z,2.27
2023-03-01T20:36:27.803Z,2.26
2023-03-01T20:38:56.191Z,2.27
2023-03-01T20:41:28.634Z,2.26
2023-03-01T20:43:58.602Z,2.26
2023-03-01T20:46:30.021Z,2.24
2023-03-01T20:48:57.802Z,2.25
2023-03-01T20:51:25.460Z,2.26
2023-03-01T20:53:53.378Z,2.28
2023-03-01T20:56:21.941Z,2.28
2023-03-01T20:59:05.825Z,2.27
2023-03-01T21:01:33.578Z,2.27
2023-03-01T21:04:01.674Z,2.25
2023-03-01T21:06:29.413Z,2.23
2023-03-01T21:08:57.682Z,2.22
2023-03-01T21:11:25.353Z,2.20
2023-03-01T21:13:54.000Z,2.20
2023-03-01T21:16:22.012Z,2.19
2023-03-01T21:18:50.267Z,2.18
2023-03-01T21:21:20.339Z,2.17
2023-03-01T21:23:48.080Z,2.17
2023-03-01T21:26:19.344Z,2.17
2023-03-01T21:28:48.217Z,2.18
2023-03-01T21:31:22.401Z,2.19
2023-03-01T21:33:52.773Z,2.21
2023-03-01T21:36:22.176Z,2.23
2023-03-01T21:38:51.232Z,2.25
2023-03-01T21:41:22.232Z,2.26
2023-03-01T21:43:51.676Z,2.26
2023-03-01T21:46:21.586Z,2.25
2023-03-01T21:48:50.742Z,2.22
2023-03-01T21:51:20.372Z,2.17
2023-03-01T21:53:48.176Z,2.11
2023-03-01T21:56:27.123Z,2.05
2023-03-01T21:58:55.579Z,2.00
2023-03-01T22:01:25.797Z,1.95
2023-03-01T22:03:55.130Z,1.91
2023-03-01T22:06:34.256Z,1.86
2023-03-01T22:09:06.014Z,1.81
2023-03-01T22:11:37.049Z,1.77
2023-03-01T22:14:05.874Z,1.72
2023-03-01T22:16:35.503Z,1.69
2023-03-01T22:19:04.638Z,1.65
2023-03-01T22:21:32.943Z,1.63
2023-03-01T22:24:01.079Z,1.63
2023-03-01T22:26:32.062Z,1.64
2023-03-01T22:29:01.930Z,1.67
2023-03-01T22:31:29.960Z,1.70
2023-03-01T22:33:58.534Z,1.73
2023-03-01T22:36:27.055Z,1.76
2023-03-01T22:39:00.188Z,1.78
2023-03-01T22:41:30.089Z,1.79
2023-03-01T22:43:57.799Z,1.78
2023-03-01T22:46:27.111Z,1.77
2023-03-01T22:48:55.729Z,1.77
2023-03-01T22:51:35.154Z,1.79
2023-03-01T22:54:03.520Z,1.79
2023-03-01T22:56:34.000Z,1.79
2023-03-01T22:59:08.755Z,1.78
2023-03-01T23:01:37.453Z,1.78
2023-03-01T23:04:05.497Z,1.81
2023-03-01T23:06:33.681Z,1.86
2023-03-01T23:09:04.182Z,1.92
2023-03-01T23:11:31.783Z,1.97
2023-03-01T23:13:59.824Z,2.00
2023-03-01T23:16:27.535Z,2.02
2023-03-01T23:18:58.217Z,2.04
2023-03-01T23:21:26.780Z,2.05
2023-03-01T23:23:55.563Z,2.06
2023-03-01T23:26:26.851Z,2.05
2023-03-01T23:28:55.911Z,2.02
2023-03-01T23:31:23.622Z,1.98
2023-03-01T23:33:51.353Z,1.97
2023-03-01T23:36:22.405Z,1.96
2023-03-01T23:38:52.099Z,1.96
2023-03-01T23:41:22.027Z,1.92
2023-03-01T23:43:51.801Z,1.90
2023-03-01T23:46:21.279Z,1.86
2023-03-01T23:48:49.299Z,1.84
2023-03-01T23:51:17.802Z,1.82
2023-03-01T23:53:55.962Z,1.79
2023-03-01T23:56:26.139Z,1.76
2023-03-01T23:58:55.995Z,1.73
